createdAt,value
2019-05-05T00:00:39.564Z,4.26
2019-05-05T00:03:21.671Z,4.27
2019-05-05T00:05:50.583Z,4.35
2019-05-05T00:08:19.608Z,4.34
2019-05-05T00:10:57.251Z,4.33
2019-05-05T00:13:36.183Z,4.40
2019-05-05T00:16:16.527Z,4.32
2019-05-05T00:18:45.536Z,4.33
2019-05-05T00:21:15.093Z,4.22
2019-05-05T00:23:45.096Z,4.32
2019-05-05T00:26:14.915Z,4.43
2019-05-05T00:28:44.784Z,4.44
2019-05-05T00:31:15.030Z,4.20
2019-05-05T00:33:44.900Z,4.18
2019-05-05T00:36:14.550Z,4.19
2019-05-05T00:38:44.510Z,4.17
2019-05-05T00:41:14.828Z,4.23
2019-05-05T00:43:45.148Z,4.12
2019-05-05T00:46:20.213Z,4.12
2019-05-05T00:48:57.567Z,4.06
2019-05-05T00:51:26.224Z,3.95
2019-05-05T00:53:55.476Z,3.97
2019-05-05T00:56:25.102Z,4.05
2019-05-05T00:58:58.196Z,4.18
2019-05-05T01:01:51.587Z,4.23
2019-05-05T01:04:25.376Z,4.20
2019-05-05T01:06:54.460Z,4.09
2019-05-05T01:09:25.191Z,4.04
2019-05-05T01:11:55.017Z,4.13
2019-05-05T01:14:24.954Z,4.01
2019-05-05T01:16:54.631Z,3.98
2019-05-05T01:19:24.293Z,3.98
2019-05-05T01:21:54.425Z,4.01
2019-05-05T01:24:24.883Z,4.04
2019-05-05T01:26:55.080Z,3.99
2019-05-05T01:29:25.235Z,4.01
2019-05-05T01:31:55.211Z,4.01
2019-05-05T01:34:28.771Z,3.96
2019-05-05T01:37:04.784Z,3.94
2019-05-05T01:39:51.027Z,3.96
2019-05-05T01:42:19.662Z,4.04
2019-05-05T01:44:48.370Z,4.01
2019-05-05T01:47:17.392Z,4.02
2019-05-05T01:49:46.029Z,4.00
2019-05-05T01:52:15.014Z,4.02
2019-05-05T01:54:44.994Z,3.96
2019-05-05T01:57:14.779Z,4.03
2019-05-05T01:59:44.750Z,3.95
2019-05-05T02:02:14.620Z,3.96
2019-05-05T02:04:44.782Z,3.94
2019-05-05T02:07:14.477Z,3.91
2019-05-05T02:09:44.901Z,3.83
2019-05-05T02:12:15.779Z,3.92
2019-05-05T02:14:44.621Z,3.89
2019-05-05T02:17:14.421Z,3.91
2019-05-05T02:19:44.373Z,3.99
2019-05-05T02:22:14.669Z,3.92
2019-05-05T02:24:44.406Z,3.88
2019-05-05T02:27:14.603Z,4.05
2019-05-05T02:29:51.651Z,4.04
2019-05-05T02:32:29.781Z,4.05
2019-05-05T02:34:59.407Z,4.06
2019-05-05T02:37:28.124Z,3.94
2019-05-05T02:40:02.718Z,3.89
2019-05-05T02:42:27.631Z,3.92
2019-05-05T02:44:56.895Z,3.98
2019-05-05T02:47:35.021Z,4.06
2019-05-05T02:50:05.545Z,4.00
2019-05-05T02:52:35.558Z,3.97
2019-05-05T02:55:04.639Z,4.12
2019-05-05T02:57:34.647Z,4.02
2019-05-05T03:00:25.755Z,3.99
2019-05-05T03:02:55.277Z,3.97
2019-05-05T03:05:23.919Z,4.00
2019-05-05T03:07:54.328Z,3.84
2019-05-05T03:10:24.608Z,3.78
2019-05-05T03:12:54.384Z,3.73
2019-05-05T03:15:28.438Z,3.73
2019-05-05T03:17:57.086Z,3.75
2019-05-05T03:20:25.715Z,3.71
2019-05-05T03:22:54.378Z,3.61
2019-05-05T03:25:24.163Z,3.70
2019-05-05T03:27:54.468Z,3.66
2019-05-05T03:30:26.112Z,3.59
2019-05-05T03:32:55.864Z,3.58
2019-05-05T03:35:24.851Z,3.59
2019-05-05T03:37:54.475Z,3.61
2019-05-05T03:40:27.543Z,3.47
2019-05-05T03:43:00.661Z,3.51
2019-05-05T03:45:46.207Z,3.52
2019-05-05T03:48:14.845Z,3.53
2019-05-05T03:50:44.622Z,3.54
2019-05-05T03:53:14.006Z,3.50
2019-05-05T03:55:43.933Z,3.39
2019-05-05T03:58:14.516Z,3.35
2019-05-05T04:01:11.567Z,3.48
2019-05-05T04:03:40.247Z,3.51
2019-05-05T04:06:08.900Z,3.46
2019-05-05T04:08:37.546Z,3.41
2019-05-05T04:11:06.239Z,3.41
2019-05-05T04:13:35.962Z,3.42
2019-05-05T04:16:28.822Z,3.48
2019-05-05T04:19:01.116Z,3.62
2019-05-05T04:21:33.698Z,3.78
2019-05-05T04:24:00.215Z,3.82
2019-05-05T04:26:29.223Z,3.97
2019-05-05T04:28:57.884Z,4.09
2019-05-05T04:31:26.868Z,4.16
2019-05-05T04:33:55.533Z,4.16
2019-05-05T04:36:24.179Z,4.19
2019-05-05T04:38:54.560Z,4.17
2019-05-05T04:41:24.548Z,4.20
2019-05-05T04:43:54.820Z,4.23
2019-05-05T04:46:24.528Z,4.22
2019-05-05T04:49:04.146Z,4.35
2019-05-05T04:51:47.008Z,4.32
2019-05-05T04:54:15.932Z,4.30
2019-05-05T04:56:44.859Z,4.40
2019-05-05T04:59:14.408Z,4.64
2019-05-05T05:01:44.020Z,4.74
2019-05-05T05:04:37.067Z,4.76
2019-05-05T05:07:05.874Z,4.82
2019-05-05T05:09:34.518Z,4.76
2019-05-05T05:12:04.033Z,4.77
2019-05-05T05:14:33.758Z,4.86
2019-05-05T05:17:05.097Z,4.90
2019-05-05T05:19:33.730Z,5.18
2019-05-05T05:22:04.926Z,5.45
2019-05-05T05:24:34.618Z,5.73
2019-05-05T05:27:05.053Z,5.73
2019-05-05T05:29:34.586Z,5.98
2019-05-05T05:32:04.183Z,6.10
2019-05-05T05:34:34.437Z,6.05
2019-05-05T05:37:04.212Z,6.10
2019-05-05T05:39:45.013Z,6.01
2019-05-05T05:42:13.811Z,6.11
2019-05-05T05:45:10.736Z,6.23
2019-05-05T05:47:57.147Z,6.43
2019-05-05T05:50:33.911Z,6.60
2019-05-05T05:53:04.688Z,6.50
2019-05-05T05:55:34.283Z,6.53
2019-05-05T05:58:04.861Z,6.39
2019-05-05T06:00:34.404Z,6.50
2019-05-05T06:03:04.057Z,6.58
2019-05-05T06:05:34.435Z,6.76
2019-05-05T06:08:04.743Z,6.89
2019-05-05T06:10:33.971Z,6.94
2019-05-05T06:13:04.262Z,6.83
2019-05-05T06:15:34.140Z,6.84
2019-05-05T06:18:04.646Z,6.81
2019-05-05T06:20:34.453Z,7.04
2019-05-05T06:23:04.202Z,7.02
2019-05-05T06:25:34.243Z,7.13
2019-05-05T06:28:04.381Z,7.46
2019-05-05T06:30:33.793Z,7.54
2019-05-05T06:33:04.879Z,7.58
2019-05-05T06:35:53.688Z,7.53
2019-05-05T06:38:24.214Z,7.62
2019-05-05T06:41:07.490Z,7.71
2019-05-05T06:44:10.172Z,7.96
2019-05-05T06:46:57.884Z,7.77
2019-05-05T06:49:26.607Z,7.85
2019-05-05T06:51:56.246Z,7.82
2019-05-05T06:54:25.001Z,7.94
2019-05-05T06:56:53.928Z,8.14
2019-05-05T06:59:24.340Z,8.23
2019-05-05T07:01:53.660Z,8.70
2019-05-05T07:04:24.380Z,8.78
2019-05-05T07:06:56.281Z,8.82
2019-05-05T07:09:24.444Z,8.77
2019-05-05T07:11:54.234Z,9.05
2019-05-05T07:14:23.686Z,9.54
2019-05-05T07:16:54.363Z,10.08
2019-05-05T07:19:23.935Z,10.09
2019-05-05T07:21:53.918Z,9.70
2019-05-05T07:24:23.898Z,9.86
2019-05-05T07:26:54.113Z,10.34
2019-05-05T07:29:26.029Z,10.33
2019-05-05T07:31:55.026Z,10.54
2019-05-05T07:34:28.200Z,10.70
2019-05-05T07:37:00.127Z,11.22
2019-05-05T07:39:34.139Z,11.50
2019-05-05T07:42:05.465Z,11.26
2019-05-05T07:44:39.280Z,11.16
2019-05-05T07:47:09.847Z,11.74
2019-05-05T07:49:44.031Z,12.05
2019-05-05T07:52:18.729Z,12.48
2019-05-05T07:54:50.722Z,12.52
2019-05-05T07:57:24.983Z,12.61
2019-05-05T08:00:01.590Z,12.44
2019-05-05T08:02:33.918Z,12.49
2019-05-05T08:05:04.704Z,13.26
2019-05-05T08:07:35.615Z,13.70
2019-05-05T08:10:06.322Z,14.23
2019-05-05T08:12:36.901Z,14.50
2019-05-05T08:15:07.883Z,14.05
2019-05-05T08:18:10.639Z,14.16
2019-05-05T08:20:44.486Z,13.43
2019-05-05T08:23:31.841Z,13.47
2019-05-05T08:26:06.102Z,13.43
2019-05-05T08:29:04.540Z,13.74
2019-05-05T08:31:50.822Z,13.52
2019-05-05T08:34:21.857Z,14.12
2019-05-05T08:36:53.840Z,14.85
2019-05-05T08:39:24.368Z,14.80
2019-05-05T08:41:53.845Z,14.65
2019-05-05T08:44:23.656Z,14.16
2019-05-05T08:46:53.784Z,13.91
2019-05-05T08:49:24.451Z,14.11
2019-05-05T08:51:54.703Z,14.09
2019-05-05T08:54:23.906Z,13.57
2019-05-05T08:56:54.819Z,13.50
2019-05-05T08:59:24.209Z,13.44
2019-05-05T09:01:54.164Z,13.79
2019-05-05T09:04:24.666Z,14.51
2019-05-05T09:06:54.600Z,15.10
2019-05-05T09:09:24.154Z,15.41
2019-05-05T09:11:54.240Z,15.22
2019-05-05T09:14:24.002Z,15.26
2019-05-05T09:16:53.715Z,15.57
2019-05-05T09:19:23.979Z,14.55
2019-05-05T09:21:54.121Z,14.68
2019-05-05T09:24:34.283Z,15.25
2019-05-05T09:27:07.518Z,15.29
2019-05-05T09:29:38.431Z,14.97
2019-05-05T09:32:07.168Z,14.70
2019-05-05T09:34:35.813Z,14.28
2019-05-05T09:37:05.254Z,14.65
2019-05-05T09:39:34.609Z,13.95
2019-05-05T09:42:04.098Z,14.28
2019-05-05T09:44:34.597Z,13.83
2019-05-05T09:47:04.747Z,14.16
2019-05-05T09:49:35.010Z,14.57
2019-05-05T09:52:05.204Z,15.01
2019-05-05T09:54:34.542Z,15.30
2019-05-05T09:57:04.503Z,15.59
2019-05-05T09:59:34.639Z,16.14
2019-05-05T10:02:04.408Z,16.28
2019-05-05T10:04:34.557Z,15.79
2019-05-05T10:07:04.402Z,16.07
2019-05-05T10:09:34.500Z,15.77
2019-05-05T10:12:04.715Z,15.94
2019-05-05T10:14:34.229Z,16.18
2019-05-05T10:17:04.897Z,16.48
2019-05-05T10:19:34.638Z,16.64
2019-05-05T10:22:04.066Z,16.43
2019-05-05T10:24:49.139Z,16.35
2019-05-05T10:27:18.985Z,16.47
2019-05-05T10:29:47.715Z,16.75
2019-05-05T10:32:18.334Z,17.00
2019-05-05T10:35:00.375Z,16.72
2019-05-05T10:37:29.451Z,17.35
2019-05-05T10:39:58.324Z,17.80
2019-05-05T10:42:46.069Z,17.74
2019-05-05T10:45:14.852Z,18.20
2019-05-05T10:47:44.057Z,18.47
2019-05-05T10:50:13.884Z,19.68
2019-05-05T10:52:44.268Z,20.71
2019-05-05T10:55:14.563Z,21.33
2019-05-05T10:57:43.916Z,21.24
2019-05-05T11:00:15.489Z,21.05
2019-05-05T11:02:43.440Z,21.17
2019-05-05T11:05:12.590Z,20.68
2019-05-05T11:07:41.617Z,20.36
2019-05-05T11:10:10.377Z,18.92
2019-05-05T11:12:39.211Z,17.38
2019-05-05T11:15:07.936Z,17.06
2019-05-05T11:17:36.583Z,16.53
2019-05-05T11:20:06.124Z,16.58
2019-05-05T11:22:35.859Z,16.36
2019-05-05T11:25:05.862Z,17.57
2019-05-05T11:27:34.821Z,19.31
2019-05-05T11:30:20.834Z,21.65
2019-05-05T11:33:07.288Z,22.17
2019-05-05T11:35:53.893Z,21.44
2019-05-05T11:38:24.583Z,20.55
2019-05-05T11:40:54.680Z,20.54
2019-05-05T11:43:24.645Z,21.67
2019-05-05T11:45:54.451Z,24.86
2019-05-05T11:48:24.058Z,25.74
2019-05-05T11:50:54.241Z,25.62
2019-05-05T11:53:25.147Z,22.48
2019-05-05T11:55:55.127Z,19.38
2019-05-05T11:58:25.101Z,16.92
2019-05-05T12:00:54.605Z,15.34
2019-05-05T12:03:23.505Z,14.06
2019-05-05T12:05:52.220Z,13.05
2019-05-05T12:08:21.026Z,12.74
2019-05-05T12:11:08.916Z,12.70
2019-05-05T12:13:37.699Z,13.59
2019-05-05T12:16:08.138Z,16.36
2019-05-05T12:18:36.871Z,17.98
2019-05-05T12:21:06.392Z,18.55
2019-05-05T12:23:35.266Z,19.54
2019-05-05T12:26:24.391Z,19.51
2019-05-05T12:28:56.444Z,21.62
2019-05-05T12:31:27.037Z,23.09
2019-05-05T12:33:55.780Z,22.64
2019-05-05T12:36:24.500Z,22.50
2019-05-05T12:38:54.704Z,21.61
2019-05-05T12:41:23.992Z,20.86
2019-05-05T12:43:54.821Z,21.21
2019-05-05T12:46:34.614Z,22.23
2019-05-05T12:49:04.875Z,21.97
2019-05-05T12:51:34.332Z,22.01
2019-05-05T12:54:04.522Z,21.93
2019-05-05T12:56:34.127Z,24.56
2019-05-05T12:59:07.467Z,25.83
2019-05-05T13:01:37.778Z,24.97
2019-05-05T13:04:06.576Z,23.20
2019-05-05T13:06:37.012Z,19.94
2019-05-05T13:09:06.937Z,18.55
2019-05-05T13:11:40.180Z,20.19
2019-05-05T13:14:08.879Z,22.73
2019-05-05T13:16:37.538Z,23.17
2019-05-05T13:19:12.219Z,23.50
2019-05-05T13:22:03.660Z,21.93
2019-05-05T13:25:01.673Z,19.65
2019-05-05T13:27:34.806Z,17.29
2019-05-05T13:30:06.024Z,16.17
2019-05-05T13:32:35.925Z,15.13
2019-05-05T13:35:07.293Z,14.14
2019-05-05T13:37:38.237Z,13.44
2019-05-05T13:40:08.618Z,13.22
2019-05-05T13:42:38.449Z,12.92
2019-05-05T13:45:20.265Z,12.60
2019-05-05T13:47:50.267Z,12.62
2019-05-05T13:50:27.598Z,12.32
2019-05-05T13:52:57.463Z,11.96
2019-05-05T13:55:27.135Z,11.69
2019-05-05T13:57:57.095Z,11.54
2019-05-05T14:00:27.027Z,11.52
2019-05-05T14:02:56.947Z,11.97
2019-05-05T14:05:26.676Z,12.40
2019-05-05T14:07:56.857Z,12.89
2019-05-05T14:10:26.958Z,13.01
2019-05-05T14:12:57.846Z,13.66
2019-05-05T14:15:27.972Z,13.20
2019-05-05T14:17:58.295Z,13.53
2019-05-05T14:20:28.099Z,14.01
2019-05-05T14:22:58.076Z,13.19
2019-05-05T14:25:29.528Z,12.74
2019-05-05T14:28:01.115Z,11.95
2019-05-05T14:31:05.551Z,11.95
2019-05-05T14:33:54.297Z,11.48
2019-05-05T14:36:37.791Z,11.44
2019-05-05T14:39:09.443Z,11.47
2019-05-05T14:41:40.816Z,12.01
2019-05-05T14:44:10.561Z,12.28
2019-05-05T14:46:40.210Z,13.05
2019-05-05T14:49:10.023Z,13.43
2019-05-05T14:51:39.763Z,13.88
2019-05-05T14:54:10.853Z,14.04
2019-05-05T14:56:43.884Z,14.11
2019-05-05T14:59:14.229Z,14.28
2019-05-05T15:01:44.927Z,14.46
2019-05-05T15:04:16.501Z,14.99
2019-05-05T15:06:50.703Z,15.51
2019-05-05T15:09:29.343Z,15.59
2019-05-05T15:12:18.440Z,15.49
2019-05-05T15:14:48.121Z,15.28
2019-05-05T15:17:17.923Z,15.53
2019-05-05T15:19:48.000Z,14.93
2019-05-05T15:22:18.004Z,14.67
2019-05-05T15:24:48.736Z,14.29
2019-05-05T15:27:18.523Z,14.24
2019-05-05T15:29:48.372Z,13.74
2019-05-05T15:32:18.681Z,13.49
2019-05-05T15:34:48.421Z,13.25
2019-05-05T15:37:18.498Z,12.70
2019-05-05T15:39:48.358Z,11.78
2019-05-05T15:42:18.081Z,11.52
2019-05-05T15:44:47.850Z,10.86
2019-05-05T15:47:17.676Z,10.62
2019-05-05T15:49:47.340Z,10.52
2019-05-05T15:52:20.072Z,10.46
2019-05-05T15:54:49.454Z,10.66
2019-05-05T15:57:19.729Z,10.87
2019-05-05T15:59:48.531Z,11.32
2019-05-05T16:02:17.172Z,11.67
2019-05-05T16:04:45.947Z,11.94
2019-05-05T16:07:14.925Z,11.91
2019-05-05T16:09:46.731Z,11.95
2019-05-05T16:12:15.095Z,11.72
2019-05-05T16:14:58.764Z,11.87
2019-05-05T16:17:34.147Z,11.75
2019-05-05T16:20:13.894Z,11.47
2019-05-05T16:22:46.738Z,11.37
2019-05-05T16:25:16.198Z,11.56
2019-05-05T16:27:45.214Z,11.46
2019-05-05T16:30:15.075Z,11.56
2019-05-05T16:32:43.788Z,11.52
2019-05-05T16:35:14.365Z,11.50
2019-05-05T16:37:43.137Z,11.66
2019-05-05T16:40:14.274Z,11.54
2019-05-05T16:42:43.698Z,11.71
2019-05-05T16:45:13.686Z,11.91
2019-05-05T16:47:44.815Z,11.96
2019-05-05T16:50:13.693Z,11.75
2019-05-05T16:52:51.642Z,11.96
2019-05-05T16:55:44.779Z,12.27
2019-05-05T16:58:13.920Z,11.97
2019-05-05T17:00:44.154Z,12.11
2019-05-05T17:03:13.487Z,12.25
2019-05-05T17:05:44.034Z,12.46
2019-05-05T17:08:15.071Z,12.49
2019-05-05T17:10:44.133Z,12.38
2019-05-05T17:13:19.724Z,12.13
2019-05-05T17:16:06.659Z,11.96
2019-05-05T17:18:55.209Z,11.88
2019-05-05T17:21:28.079Z,11.78
2019-05-05T17:23:56.826Z,11.71
2019-05-05T17:26:25.493Z,11.68
2019-05-05T17:28:54.224Z,11.87
2019-05-05T17:31:24.371Z,12.01
2019-05-05T17:33:53.570Z,11.94
2019-05-05T17:36:24.149Z,11.81
2019-05-05T17:38:54.343Z,11.55
2019-05-05T17:41:36.248Z,11.38
2019-05-05T17:44:14.076Z,11.47
2019-05-05T17:46:53.824Z,11.52
2019-05-05T17:49:37.937Z,11.42
2019-05-05T17:52:24.892Z,11.23
2019-05-05T17:54:56.462Z,11.12
2019-05-05T17:57:26.168Z,10.81
2019-05-05T17:59:54.816Z,10.81
2019-05-05T18:02:23.712Z,10.88
2019-05-05T18:04:54.083Z,10.84
2019-05-05T18:07:40.399Z,10.76
2019-05-05T18:10:13.607Z,10.63
2019-05-05T18:13:19.531Z,10.56
2019-05-05T18:15:57.075Z,10.49
2019-05-05T18:18:25.732Z,10.25
2019-05-05T18:20:54.392Z,10.09
2019-05-05T18:23:23.487Z,9.99
2019-05-05T18:25:54.711Z,9.88
2019-05-05T18:28:24.687Z,9.78
2019-05-05T18:30:53.987Z,9.76
2019-05-05T18:33:24.537Z,9.74
2019-05-05T18:35:54.024Z,9.67
2019-05-05T18:38:23.621Z,9.55
2019-05-05T18:40:53.416Z,9.46
2019-05-05T18:43:30.366Z,9.39
2019-05-05T18:46:04.549Z,9.38
2019-05-05T18:48:34.488Z,9.29
2019-05-05T18:51:03.925Z,9.26
2019-05-05T18:53:34.139Z,9.27
2019-05-05T18:56:03.762Z,9.20
2019-05-05T18:58:34.163Z,9.11
2019-05-05T19:01:13.923Z,9.17
2019-05-05T19:04:13.752Z,9.19
2019-05-05T19:06:48.213Z,9.23
2019-05-05T19:09:19.860Z,9.12
2019-05-05T19:11:48.503Z,9.17
2019-05-05T19:14:17.139Z,9.13
2019-05-05T19:16:45.783Z,9.07
2019-05-05T19:19:14.795Z,9.12
2019-05-05T19:21:46.765Z,9.01
2019-05-05T19:24:15.743Z,8.98
2019-05-05T19:26:44.393Z,8.93
2019-05-05T19:29:13.575Z,8.85
2019-05-05T19:31:43.824Z,8.80
2019-05-05T19:34:14.571Z,8.81
2019-05-05T19:36:44.923Z,8.76
2019-05-05T19:39:13.834Z,8.67
2019-05-05T19:41:46.563Z,8.69
2019-05-05T19:44:14.673Z,8.69
2019-05-05T19:46:49.408Z,8.74
2019-05-05T19:49:18.735Z,8.78
2019-05-05T19:51:48.765Z,8.83
2019-05-05T19:54:17.466Z,8.87
2019-05-05T19:56:46.884Z,8.91
2019-05-05T19:59:15.535Z,8.92
2019-05-05T20:01:45.067Z,8.91
2019-05-05T20:04:14.655Z,8.91
2019-05-05T20:06:44.182Z,8.91
2019-05-05T20:09:14.364Z,8.86
2019-05-05T20:11:43.873Z,8.82
2019-05-05T20:14:14.845Z,8.83
2019-05-05T20:17:04.270Z,8.74
2019-05-05T20:19:36.800Z,8.71
2019-05-05T20:22:05.559Z,8.69
2019-05-05T20:24:34.195Z,8.56
2019-05-05T20:27:04.535Z,8.43
2019-05-05T20:29:36.756Z,8.38
2019-05-05T20:32:04.385Z,8.31
2019-05-05T20:34:54.052Z,8.24
2019-05-05T20:37:26.859Z,8.10
2019-05-05T20:39:56.341Z,8.09
2019-05-05T20:42:24.983Z,8.07
2019-05-05T20:44:54.444Z,8.06
2019-05-05T20:47:24.203Z,8.00
2019-05-05T20:49:53.942Z,7.92
2019-05-05T20:52:23.696Z,7.80
2019-05-05T20:54:53.731Z,7.75
2019-05-05T20:57:22.623Z,7.63
2019-05-05T20:59:51.349Z,7.51
2019-05-05T21:02:20.030Z,7.41
2019-05-05T21:04:48.766Z,7.29
2019-05-05T21:07:18.099Z,7.20
2019-05-05T21:09:46.776Z,7.11
2019-05-05T21:12:15.424Z,6.99
2019-05-05T21:14:44.689Z,6.91
2019-05-05T21:17:13.747Z,6.82
2019-05-05T21:19:42.655Z,6.74
2019-05-05T21:22:29.543Z,6.56
2019-05-05T21:24:58.567Z,6.37
2019-05-05T21:27:27.215Z,6.14
2019-05-05T21:29:55.865Z,5.93
2019-05-05T21:32:25.402Z,5.75
2019-05-05T21:34:54.404Z,5.66
2019-05-05T21:37:24.940Z,5.53
2019-05-05T21:39:55.137Z,5.43
2019-05-05T21:42:24.198Z,5.29
2019-05-05T21:44:53.906Z,5.31
2019-05-05T21:47:23.974Z,5.22
2019-05-05T21:49:54.243Z,5.14
2019-05-05T21:52:30.562Z,5.04
2019-05-05T21:55:17.335Z,4.96
2019-05-05T21:58:04.343Z,4.86
2019-05-05T22:00:52.074Z,4.78
2019-05-05T22:03:34.767Z,4.68
2019-05-05T22:06:04.890Z,4.59
2019-05-05T22:08:35.044Z,4.52
2019-05-05T22:11:04.289Z,4.46
2019-05-05T22:13:36.208Z,4.42
2019-05-05T22:16:04.032Z,4.36
2019-05-05T22:18:33.174Z,4.35
2019-05-05T22:21:10.160Z,4.34
2019-05-05T22:23:38.804Z,4.35
2019-05-05T22:26:08.407Z,4.26
2019-05-05T22:28:37.067Z,4.18
2019-05-05T22:31:05.699Z,4.11
2019-05-05T22:33:34.336Z,4.08
2019-05-05T22:36:04.478Z,4.03
2019-05-05T22:38:33.919Z,4.00
2019-05-05T22:41:02.960Z,3.98
2019-05-05T22:43:31.611Z,3.94
2019-05-05T22:46:00.251Z,3.90
2019-05-05T22:48:28.901Z,3.88
2019-05-05T22:50:57.531Z,3.82
2019-05-05T22:53:26.670Z,3.80
2019-05-05T22:55:56.563Z,3.73
2019-05-05T22:58:25.541Z,3.69
2019-05-05T23:00:54.890Z,3.61
2019-05-05T23:03:37.475Z,3.51
2019-05-05T23:06:09.701Z,3.43
2019-05-05T23:08:38.344Z,3.34
2019-05-05T23:11:06.984Z,3.25
2019-05-05T23:13:35.620Z,3.15
2019-05-05T23:16:14.679Z,3.15
2019-05-05T23:18:44.293Z,3.14
2019-05-05T23:21:19.518Z,3.04
2019-05-05T23:23:56.271Z,3.01
2019-05-05T23:26:26.233Z,2.99
2019-05-05T23:28:54.940Z,2.95
2019-05-05T23:31:24.102Z,2.94
2019-05-05T23:33:54.720Z,2.92
2019-05-05T23:36:24.207Z,2.95
2019-05-05T23:38:54.884Z,2.92
2019-05-05T23:41:23.904Z,2.91
2019-05-05T23:43:54.466Z,2.76
2019-05-05T23:46:24.143Z,2.73
2019-05-05T23:48:54.513Z,2.69
2019-05-05T23:51:24.271Z,2.59
2019-05-05T23:53:54.980Z,2.54
2019-05-05T23:56:24.569Z,2.55
2019-05-05T23:58:55.011Z,2.49
